createdAt,value
2023-02-24T00:01:13.530Z,7.60
2023-02-24T00:03:45.003Z,5.63
2023-02-24T00:06:13.085Z,6.60
2023-02-24T00:08:42.701Z,7.67
2023-02-24T00:11:13.247Z,7.40
2023-02-24T00:13:41.294Z,7.20
2023-02-24T00:16:09.283Z,7.53
2023-02-24T00:18:37.055Z,7.50
2023-02-24T00:21:08.374Z,6.80
2023-02-24T00:23:38.200Z,5.73
2023-02-24T00:26:08.736Z,6.90
2023-02-24T00:28:37.094Z,6.47
2023-02-24T00:31:06.102Z,7.13
2023-02-24T00:33:34.602Z,7.53
2023-02-24T00:36:06.338Z,7.57
2023-02-24T00:38:36.063Z,7.77
2023-02-24T00:41:12.568Z,7.87
2023-02-24T00:43:40.544Z,7.73
2023-02-24T00:46:11.523Z,7.63
2023-02-24T00:48:41.813Z,6.73
2023-02-24T00:51:10.488Z,7.43
2023-02-24T00:53:39.974Z,8.03
2023-02-24T00:56:08.487Z,7.70
2023-02-24T00:58:39.399Z,7.77
2023-02-24T01:01:13.935Z,6.57
2023-02-24T01:03:42.540Z,9.23
2023-02-24T01:06:12.376Z,9.30
2023-02-24T01:08:40.440Z,8.00
2023-02-24T01:11:31.709Z,7.23
2023-02-24T01:14:01.292Z,7.07
2023-02-24T01:16:28.965Z,8.50
2023-02-24T01:18:56.910Z,6.00
2023-02-24T01:21:24.801Z,8.93
2023-02-24T01:23:55.388Z,8.60
2023-02-24T01:26:23.829Z,7.80
2023-02-24T01:28:51.547Z,8.03
2023-02-24T01:31:22.456Z,7.73
2023-02-24T01:33:50.413Z,8.83
2023-02-24T01:36:18.922Z,6.93
2023-02-24T01:38:47.034Z,9.03
2023-02-24T01:41:16.994Z,8.03
2023-02-24T01:43:59.039Z,7.87
2023-02-24T01:46:28.262Z,6.57
2023-02-24T01:49:00.944Z,7.33
2023-02-24T01:51:30.259Z,8.67
2023-02-24T01:53:58.070Z,8.03
2023-02-24T01:56:29.635Z,8.03
2023-02-24T01:58:57.792Z,6.97
2023-02-24T02:01:25.549Z,7.57
2023-02-24T02:03:58.732Z,8.07
2023-02-24T02:06:26.716Z,5.70
2023-02-24T02:08:55.227Z,6.33
2023-02-24T02:11:23.487Z,6.30
2023-02-24T02:13:52.325Z,6.00
2023-02-24T02:16:30.524Z,6.47
2023-02-24T02:19:04.461Z,7.00
2023-02-24T02:21:46.522Z,5.77
2023-02-24T02:24:26.307Z,6.90
2023-02-24T02:27:21.313Z,6.50
2023-02-24T02:30:13.759Z,7.17
2023-02-24T02:33:01.962Z,6.43
2023-02-24T02:35:36.925Z,5.73
2023-02-24T02:38:10.856Z,6.83
2023-02-24T02:40:41.712Z,7.33
2023-02-24T02:43:14.412Z,8.40
2023-02-24T02:45:47.817Z,7.77
2023-02-24T02:48:18.521Z,7.17
2023-02-24T02:50:49.696Z,6.27
2023-02-24T02:53:23.240Z,9.37
2023-02-24T02:55:54.009Z,9.80
2023-02-24T02:58:26.330Z,10.33
2023-02-24T03:01:03.032Z,9.47
2023-02-24T03:03:32.793Z,8.50
2023-02-24T03:06:04.039Z,7.23
2023-02-24T03:08:34.547Z,5.73
2023-02-24T03:11:03.529Z,7.67
2023-02-24T03:13:33.195Z,7.27
2023-02-24T03:16:03.025Z,5.83
2023-02-24T03:18:33.424Z,6.03
2023-02-24T03:21:09.734Z,6.73
2023-02-24T03:23:40.829Z,7.03
2023-02-24T03:26:17.320Z,6.47
2023-02-24T03:28:50.298Z,7.10
2023-02-24T03:31:23.602Z,6.97
2023-02-24T03:33:54.451Z,5.80
2023-02-24T03:36:24.014Z,6.00
2023-02-24T03:38:51.962Z,5.90
2023-02-24T03:41:20.752Z,5.13
2023-02-24T03:43:50.230Z,5.90
2023-02-24T03:46:18.781Z,6.03
2023-02-24T03:48:49.358Z,5.87
2023-02-24T03:51:17.602Z,5.63
2023-02-24T03:53:51.892Z,6.40
2023-02-24T03:56:25.024Z,5.00
2023-02-24T03:58:59.705Z,4.57
2023-02-24T04:01:31.220Z,4.87
2023-02-24T04:04:02.044Z,5.20
2023-02-24T04:06:33.568Z,5.40
2023-02-24T04:09:08.983Z,5.50
2023-02-24T04:11:46.951Z,6.13
2023-02-24T04:14:18.728Z,5.43
2023-02-24T04:16:54.360Z,5.53
2023-02-24T04:19:24.227Z,4.57
2023-02-24T04:21:52.620Z,6.03
2023-02-24T04:24:23.994Z,5.03
2023-02-24T04:26:53.737Z,4.80
2023-02-24T04:29:25.911Z,4.83
2023-02-24T04:31:56.006Z,4.20
2023-02-24T04:34:23.754Z,4.57
2023-02-24T04:36:51.489Z,5.53
2023-02-24T04:39:19.813Z,5.10
2023-02-24T04:41:49.437Z,5.47
2023-02-24T04:44:18.841Z,10.90
2023-02-24T04:46:47.058Z,8.73
2023-02-24T04:49:14.926Z,8.80
2023-02-24T04:51:43.570Z,7.27
2023-02-24T04:54:13.947Z,12.03
2023-02-24T04:56:45.217Z,6.57
2023-02-24T04:59:20.058Z,6.57
2023-02-24T05:01:51.828Z,3.17
2023-02-24T05:04:20.060Z,3.67
2023-02-24T05:06:48.026Z,4.13
2023-02-24T05:09:18.239Z,4.13
2023-02-24T05:11:51.623Z,4.97
2023-02-24T05:14:23.075Z,3.53
2023-02-24T05:16:51.119Z,4.23
2023-02-24T05:19:37.043Z,5.00
2023-02-24T05:22:07.287Z,4.03
2023-02-24T05:24:35.774Z,3.77
2023-02-24T05:27:04.632Z,3.97
2023-02-24T05:29:35.157Z,3.80
2023-02-24T05:32:03.228Z,3.70
2023-02-24T05:34:32.056Z,3.67
2023-02-24T05:37:01.650Z,3.57
2023-02-24T05:39:29.642Z,4.37
2023-02-24T05:41:57.508Z,4.30
2023-02-24T05:44:26.635Z,4.70
2023-02-24T05:46:58.923Z,3.80
2023-02-24T05:49:29.632Z,4.00
2023-02-24T05:51:59.959Z,4.80
2023-02-24T05:54:29.578Z,4.77
2023-02-24T05:57:00.236Z,3.47
2023-02-24T05:59:33.209Z,3.73
2023-02-24T06:02:07.250Z,3.90
2023-02-24T06:04:46.021Z,4.67
2023-02-24T06:07:19.112Z,4.87
2023-02-24T06:09:50.392Z,5.13
2023-02-24T06:12:19.187Z,4.03
2023-02-24T06:14:47.044Z,4.37
2023-02-24T06:17:17.126Z,5.03
2023-02-24T06:19:44.969Z,4.70
2023-02-24T06:22:14.193Z,4.33
2023-02-24T06:24:44.606Z,4.60
2023-02-24T06:27:18.000Z,4.43
2023-02-24T06:29:46.176Z,4.73
2023-02-24T06:32:13.957Z,4.67
2023-02-24T06:34:43.707Z,4.80
2023-02-24T06:37:12.965Z,4.73
2023-02-24T06:39:41.141Z,4.00
2023-02-24T06:42:09.233Z,4.93
2023-02-24T06:44:38.354Z,6.10
2023-02-24T06:47:07.140Z,5.13
2023-02-24T06:49:35.315Z,5.30
2023-02-24T06:52:04.709Z,4.27
2023-02-24T06:54:38.477Z,5.97
2023-02-24T06:57:06.466Z,5.10
2023-02-24T06:59:34.511Z,5.27
2023-02-24T07:02:03.651Z,5.17
2023-02-24T07:04:36.375Z,5.93
2023-02-24T07:07:05.574Z,5.47
2023-02-24T07:09:35.730Z,5.33
2023-02-24T07:12:04.696Z,5.70
2023-02-24T07:14:32.498Z,5.87
2023-02-24T07:17:00.772Z,5.77
2023-02-24T07:19:29.578Z,5.57
2023-02-24T07:22:00.342Z,5.17
2023-02-24T07:24:36.124Z,5.90
2023-02-24T07:27:05.655Z,6.23
2023-02-24T07:29:34.154Z,5.80
2023-02-24T07:32:03.716Z,5.73
2023-02-24T07:34:32.182Z,5.23
2023-02-24T07:37:02.869Z,6.10
2023-02-24T07:39:32.518Z,5.30
2023-02-24T07:42:00.249Z,9.37
2023-02-24T07:44:29.545Z,9.47
2023-02-24T07:46:59.793Z,8.03
2023-02-24T07:49:30.470Z,7.07
2023-02-24T07:51:58.950Z,6.83
2023-02-24T07:54:31.056Z,6.27
2023-02-24T07:57:00.528Z,6.90
2023-02-24T07:59:29.403Z,7.37
2023-02-24T08:01:57.285Z,7.33
2023-02-24T08:04:25.745Z,8.70
2023-02-24T08:06:57.611Z,13.50
2023-02-24T08:09:40.568Z,18.20
2023-02-24T08:12:10.072Z,11.87
2023-02-24T08:14:44.668Z,9.53
2023-02-24T08:17:20.143Z,8.00
2023-02-24T08:19:48.328Z,7.93
2023-02-24T08:22:24.316Z,9.33
2023-02-24T08:24:53.652Z,7.80
2023-02-24T08:27:24.078Z,6.13
2023-02-24T08:29:59.935Z,6.97
2023-02-24T08:32:34.025Z,5.47
2023-02-24T08:35:03.753Z,6.33
2023-02-24T08:37:39.793Z,6.10
2023-02-24T08:40:29.496Z,6.23
2023-02-24T08:42:59.690Z,6.67
2023-02-24T08:45:28.954Z,6.37
2023-02-24T08:48:00.700Z,9.97
2023-02-24T08:50:32.378Z,4.47
2023-02-24T08:53:01.172Z,6.27
2023-02-24T08:55:34.074Z,7.97
2023-02-24T08:58:03.622Z,7.30
2023-02-24T09:00:49.485Z,6.97
2023-02-24T09:03:28.267Z,4.60
2023-02-24T09:06:00.209Z,5.67
2023-02-24T09:08:33.070Z,6.33
2023-02-24T09:11:01.983Z,6.20
2023-02-24T09:13:34.144Z,5.97
2023-02-24T09:16:02.603Z,7.50
2023-02-24T09:18:38.498Z,7.00
2023-02-24T09:21:32.581Z,6.03
2023-02-24T09:24:03.637Z,7.17
2023-02-24T09:26:43.246Z,6.37
2023-02-24T09:29:33.725Z,6.63
2023-02-24T09:32:05.798Z,6.20
2023-02-24T09:34:34.389Z,6.43
2023-02-24T09:37:05.485Z,6.07
2023-02-24T09:39:55.669Z,6.50
2023-02-24T09:42:34.917Z,7.10
2023-02-24T09:45:11.503Z,6.47
2023-02-24T09:47:57.128Z,6.03
2023-02-24T09:51:03.101Z,6.50
2023-02-24T09:53:41.174Z,6.73
2023-02-24T09:56:16.228Z,8.20
2023-02-24T09:58:48.159Z,7.50
2023-02-24T10:01:33.846Z,5.97
2023-02-24T10:04:20.130Z,7.03
2023-02-24T10:06:49.881Z,6.60
2023-02-24T10:09:24.951Z,5.23
2023-02-24T10:11:54.916Z,7.80
2023-02-24T10:14:37.760Z,8.90
2023-02-24T10:17:24.324Z,6.83
2023-02-24T10:20:00.272Z,6.77
2023-02-24T10:22:50.861Z,7.43
2023-02-24T10:25:36.397Z,5.57
2023-02-24T10:28:08.259Z,6.67
2023-02-24T10:31:04.318Z,10.27
2023-02-24T10:33:39.070Z,7.80
2023-02-24T10:36:09.743Z,7.87
2023-02-24T10:38:38.426Z,7.97
2023-02-24T10:41:07.554Z,7.50
2023-02-24T10:43:45.706Z,9.00
2023-02-24T10:46:29.112Z,8.47
2023-02-24T10:49:11.965Z,7.93
2023-02-24T10:51:41.289Z,8.20
2023-02-24T10:54:34.300Z,9.40
2023-02-24T10:57:15.932Z,6.40
2023-02-24T10:59:58.656Z,10.53
2023-02-24T11:02:32.894Z,8.57
2023-02-24T11:05:27.395Z,8.40
2023-02-24T11:08:07.840Z,8.53
2023-02-24T11:10:53.092Z,9.23
2023-02-24T11:13:39.498Z,7.93
2023-02-24T11:16:27.096Z,7.43
2023-02-24T11:18:55.408Z,8.33
2023-02-24T11:21:25.812Z,9.23
2023-02-24T11:23:55.854Z,8.40
2023-02-24T11:26:27.543Z,9.03
2023-02-24T11:29:06.945Z,8.53
2023-02-24T11:31:52.145Z,8.90
2023-02-24T11:34:21.609Z,9.07
2023-02-24T11:36:55.327Z,8.57
2023-02-24T11:39:32.712Z,9.63
2023-02-24T11:42:01.776Z,8.63
2023-02-24T11:44:34.761Z,10.17
2023-02-24T11:47:07.413Z,8.70
2023-02-24T11:49:39.116Z,7.37
2023-02-24T11:52:11.310Z,7.73
2023-02-24T11:54:41.939Z,6.97
2023-02-24T11:57:15.420Z,6.90
2023-02-24T11:59:45.454Z,7.37
2023-02-24T12:02:16.877Z,8.20
2023-02-24T12:04:51.192Z,8.57
2023-02-24T12:07:23.037Z,7.10
2023-02-24T12:09:56.373Z,9.23
2023-02-24T12:12:32.257Z,8.80
2023-02-24T12:15:01.602Z,7.97
2023-02-24T12:17:33.490Z,9.60
2023-02-24T12:20:06.118Z,8.83
2023-02-24T12:22:40.176Z,8.93
2023-02-24T12:25:12.388Z,9.20
2023-02-24T12:27:46.586Z,7.93
2023-02-24T12:30:34.330Z,9.73
2023-02-24T12:33:08.274Z,6.90
2023-02-24T12:35:42.152Z,8.00
2023-02-24T12:38:16.707Z,7.93
2023-02-24T12:40:48.914Z,7.70
2023-02-24T12:43:23.965Z,8.57
2023-02-24T12:45:56.728Z,8.50
2023-02-24T12:48:33.604Z,9.27
2023-02-24T12:51:05.122Z,8.80
2023-02-24T12:53:38.292Z,9.00
2023-02-24T12:56:10.536Z,8.70
2023-02-24T12:58:39.564Z,9.10
2023-02-24T13:01:12.199Z,8.67
2023-02-24T13:03:46.463Z,8.27
2023-02-24T13:06:17.117Z,8.50
2023-02-24T13:08:52.888Z,8.20
2023-02-24T13:11:25.580Z,8.30
2023-02-24T13:13:56.485Z,7.10
2023-02-24T13:16:32.177Z,9.10
2023-02-24T13:19:06.987Z,8.47
2023-02-24T13:21:40.620Z,7.63
2023-02-24T13:24:22.055Z,8.20
2023-02-24T13:26:50.904Z,9.27
2023-02-24T13:29:19.733Z,8.50
2023-02-24T13:31:48.745Z,8.20
2023-02-24T13:34:30.205Z,8.47
2023-02-24T13:36:58.002Z,8.43
2023-02-24T13:39:33.906Z,8.67
2023-02-24T13:42:05.712Z,7.20
2023-02-24T13:44:34.133Z,6.93
2023-02-24T13:47:20.286Z,8.23
2023-02-24T13:49:54.367Z,7.53
2023-02-24T13:52:28.050Z,7.97
2023-02-24T13:55:02.909Z,8.43
2023-02-24T13:57:53.059Z,10.10
2023-02-24T14:00:37.041Z,11.67
2023-02-24T14:03:11.277Z,11.60
2023-02-24T14:05:43.100Z,11.53
2023-02-24T14:08:17.458Z,13.40
2023-02-24T14:10:48.452Z,13.70
2023-02-24T14:13:18.183Z,11.40
2023-02-24T14:15:48.639Z,11.93
2023-02-24T14:18:20.120Z,13.27
2023-02-24T14:20:48.025Z,13.37
2023-02-24T14:23:23.699Z,12.10
2023-02-24T14:25:56.754Z,11.67
2023-02-24T14:28:25.632Z,13.07
2023-02-24T14:30:54.581Z,14.70
2023-02-24T14:33:27.164Z,22.73
2023-02-24T14:35:55.037Z,24.00
2023-02-24T14:38:30.237Z,20.00
2023-02-24T14:40:59.704Z,18.87
2023-02-24T14:43:27.992Z,18.83
2023-02-24T14:45:57.802Z,16.20
2023-02-24T14:48:27.263Z,14.07
2023-02-24T14:50:57.398Z,14.40
2023-02-24T14:53:27.111Z,12.60
2023-02-24T14:55:57.366Z,14.17
2023-02-24T14:58:29.472Z,15.83
2023-02-24T15:00:59.293Z,15.53
2023-02-24T15:03:30.370Z,14.93
2023-02-24T15:06:00.569Z,14.90
2023-02-24T15:08:32.818Z,14.60
2023-02-24T15:11:01.311Z,14.97
2023-02-24T15:13:34.648Z,15.93
2023-02-24T15:16:13.034Z,15.77
2023-02-24T15:18:41.867Z,15.07
2023-02-24T15:21:20.204Z,17.47
2023-02-24T15:23:48.297Z,17.17
2023-02-24T15:26:26.327Z,15.97
2023-02-24T15:28:59.823Z,16.57
2023-02-24T15:31:29.005Z,15.37
2023-02-24T15:33:58.045Z,14.33
2023-02-24T15:36:27.014Z,15.43
2023-02-24T15:38:57.845Z,13.83
2023-02-24T15:41:25.685Z,15.73
2023-02-24T15:43:56.225Z,15.13
2023-02-24T15:46:27.027Z,15.60
2023-02-24T15:48:56.527Z,15.20
2023-02-24T15:51:30.289Z,15.43
2023-02-24T15:54:00.205Z,14.47
2023-02-24T15:56:28.738Z,16.80
2023-02-24T15:58:56.410Z,15.53
2023-02-24T16:01:26.829Z,14.50
2023-02-24T16:03:55.983Z,16.00
2023-02-24T16:06:24.697Z,17.30
2023-02-24T16:08:53.529Z,16.20
2023-02-24T16:11:23.535Z,16.73
2023-02-24T16:13:53.387Z,15.80
2023-02-24T16:16:22.653Z,16.53
2023-02-24T16:18:52.020Z,15.00
2023-02-24T16:21:20.367Z,16.77
2023-02-24T16:23:48.757Z,17.40
2023-02-24T16:26:18.518Z,18.70
2023-02-24T16:28:47.609Z,18.43
2023-02-24T16:31:15.721Z,17.53
2023-02-24T16:33:54.532Z,20.13
2023-02-24T16:36:26.704Z,20.03
2023-02-24T16:38:54.571Z,17.07
2023-02-24T16:41:23.459Z,16.80
2023-02-24T16:43:51.554Z,17.67
2023-02-24T16:46:21.310Z,16.50
2023-02-24T16:48:52.956Z,16.27
2023-02-24T16:51:20.978Z,15.73
2023-02-24T16:53:50.031Z,16.83
2023-02-24T16:56:18.136Z,27.87
2023-02-24T16:58:45.822Z,26.00
2023-02-24T17:01:17.192Z,27.23
2023-02-24T17:03:46.107Z,28.33
2023-02-24T17:06:14.538Z,23.43
2023-02-24T17:08:43.863Z,16.57
2023-02-24T17:11:13.723Z,17.20
2023-02-24T17:13:41.781Z,16.83
2023-02-24T17:16:09.607Z,14.90
2023-02-24T17:18:38.126Z,15.07
2023-02-24T17:21:06.447Z,15.57
2023-02-24T17:23:34.250Z,17.40
2023-02-24T17:26:03.652Z,18.00
2023-02-24T17:28:33.168Z,14.80
2023-02-24T17:31:00.951Z,18.73
2023-02-24T17:33:28.810Z,15.00
2023-02-24T17:35:56.538Z,18.77
2023-02-24T17:38:25.237Z,21.03
2023-02-24T17:40:55.779Z,20.50
2023-02-24T17:43:23.645Z,20.43
2023-02-24T17:45:53.872Z,21.83
2023-02-24T17:48:22.490Z,21.13
2023-02-24T17:50:50.218Z,19.63
2023-02-24T17:53:18.321Z,18.03
2023-02-24T17:56:01.554Z,19.07
2023-02-24T17:58:30.353Z,18.27
2023-02-24T18:01:00.953Z,16.13
2023-02-24T18:03:28.818Z,14.80
2023-02-24T18:06:08.494Z,18.00
2023-02-24T18:08:37.803Z,16.50
2023-02-24T18:11:06.471Z,18.13
2023-02-24T18:13:34.464Z,18.90
2023-02-24T18:16:08.719Z,18.43
2023-02-24T18:18:36.537Z,17.57
2023-02-24T18:21:05.465Z,19.47
2023-02-24T18:23:33.474Z,21.83
2023-02-24T18:26:03.213Z,21.23
2023-02-24T18:28:31.056Z,22.80
2023-02-24T18:31:00.540Z,19.47
2023-02-24T18:33:30.501Z,19.53
2023-02-24T18:35:59.521Z,18.07
2023-02-24T18:38:27.581Z,19.00
2023-02-24T18:40:59.441Z,17.90
2023-02-24T18:43:27.232Z,19.23
2023-02-24T18:45:58.621Z,17.27
2023-02-24T18:48:26.370Z,18.93
2023-02-24T18:50:55.708Z,17.17
2023-02-24T18:53:24.108Z,15.13
2023-02-24T18:55:52.483Z,19.43
2023-02-24T18:58:20.135Z,21.00
2023-02-24T19:00:48.044Z,16.67
2023-02-24T19:03:15.797Z,20.00
2023-02-24T19:05:43.482Z,21.07
2023-02-24T19:08:12.638Z,20.37
2023-02-24T19:10:40.829Z,19.40
2023-02-24T19:13:09.056Z,20.43
2023-02-24T19:15:37.023Z,21.63
2023-02-24T19:18:04.946Z,24.47
2023-02-24T19:20:32.971Z,26.63
2023-02-24T19:23:01.423Z,24.47
2023-02-24T19:25:30.906Z,23.23
2023-02-24T19:27:59.598Z,22.57
2023-02-24T19:30:28.278Z,23.73
2023-02-24T19:32:56.141Z,20.60
2023-02-24T19:35:24.254Z,21.60
2023-02-24T19:37:52.064Z,23.07
2023-02-24T19:40:20.511Z,20.07
2023-02-24T19:42:51.818Z,21.50
2023-02-24T19:45:19.692Z,20.87
2023-02-24T19:47:47.831Z,19.93
2023-02-24T19:50:16.107Z,18.60
2023-02-24T19:52:44.073Z,18.90
2023-02-24T19:55:12.711Z,19.50
2023-02-24T19:57:40.459Z,20.87
2023-02-24T20:00:12.368Z,21.90
2023-02-24T20:02:40.428Z,19.60
2023-02-24T20:05:10.477Z,18.83
2023-02-24T20:07:38.833Z,16.63
2023-02-24T20:10:08.022Z,20.37
2023-02-24T20:12:35.892Z,20.53
2023-02-24T20:15:03.715Z,21.47
2023-02-24T20:17:34.330Z,20.07
2023-02-24T20:20:02.164Z,21.40
2023-02-24T20:22:30.012Z,20.80
2023-02-24T20:24:57.723Z,19.23
2023-02-24T20:27:25.357Z,21.47
2023-02-24T20:29:53.786Z,20.50
2023-02-24T20:32:23.549Z,20.33
2023-02-24T20:34:52.892Z,22.27
2023-02-24T20:37:21.089Z,19.70
2023-02-24T20:39:48.890Z,21.10
2023-02-24T20:42:16.820Z,21.20
2023-02-24T20:44:47.488Z,21.60
2023-02-24T20:47:16.611Z,20.83
2023-02-24T20:49:46.006Z,18.33
2023-02-24T20:52:15.692Z,19.50
2023-02-24T20:54:45.826Z,20.10
2023-02-24T20:57:13.611Z,20.60
2023-02-24T20:59:49.211Z,22.03
2023-02-24T21:02:19.619Z,23.23
2023-02-24T21:04:47.858Z,22.33
2023-02-24T21:07:16.921Z,25.13
2023-02-24T21:09:45.010Z,23.70
2023-02-24T21:12:13.130Z,20.57
2023-02-24T21:14:41.696Z,20.17
2023-02-24T21:17:13.157Z,19.47
2023-02-24T21:19:40.883Z,19.43
2023-02-24T21:22:08.737Z,20.03
2023-02-24T21:24:38.161Z,19.00
2023-02-24T21:27:05.813Z,19.43
2023-02-24T21:29:33.436Z,19.73
2023-02-24T21:32:01.284Z,21.03
2023-02-24T21:34:29.287Z,22.23
2023-02-24T21:36:57.022Z,24.87
2023-02-24T21:39:24.701Z,27.23
2023-02-24T21:41:54.134Z,29.10
2023-02-24T21:44:22.093Z,26.30
2023-02-24T21:46:49.987Z,25.57
2023-02-24T21:49:18.342Z,22.67
2023-02-24T21:51:47.093Z,17.23
2023-02-24T21:54:14.762Z,22.53
2023-02-24T21:56:42.442Z,21.77
2023-02-24T21:59:11.569Z,23.03
2023-02-24T22:01:41.079Z,19.33
2023-02-24T22:04:10.156Z,21.90
2023-02-24T22:06:38.822Z,22.23
2023-02-24T22:09:07.843Z,21.57
2023-02-24T22:11:39.538Z,21.87
2023-02-24T22:14:08.005Z,15.67
2023-02-24T22:16:37.544Z,20.33
2023-02-24T22:19:05.939Z,18.60
2023-02-24T22:21:34.373Z,18.57
2023-02-24T22:24:03.583Z,20.33
2023-02-24T22:26:32.052Z,16.60
2023-02-24T22:29:00.839Z,19.97
2023-02-24T22:31:29.749Z,19.13
2023-02-24T22:33:59.519Z,18.73
2023-02-24T22:36:28.645Z,18.00
2023-02-24T22:38:56.853Z,18.93
2023-02-24T22:41:25.754Z,19.57
2023-02-24T22:43:54.127Z,18.53
2023-02-24T22:46:23.438Z,19.27
2023-02-24T22:48:52.008Z,19.97
2023-02-24T22:51:21.245Z,18.77
2023-02-24T22:53:50.027Z,18.53
2023-02-24T22:56:18.803Z,18.93
2023-02-24T22:58:46.717Z,19.73
2023-02-24T23:01:16.482Z,18.70
2023-02-24T23:03:46.331Z,21.10
2023-02-24T23:06:14.993Z,19.87
2023-02-24T23:08:44.710Z,20.60
2023-02-24T23:11:13.689Z,19.87
2023-02-24T23:13:41.870Z,20.40
2023-02-24T23:16:11.232Z,22.07
2023-02-24T23:18:40.709Z,19.50
2023-02-24T23:21:09.245Z,20.37
2023-02-24T23:23:37.612Z,20.27
2023-02-24T23:26:07.906Z,20.37
2023-02-24T23:28:36.242Z,20.27
2023-02-24T23:31:04.017Z,19.17
2023-02-24T23:33:32.064Z,22.57
2023-02-24T23:36:03.380Z,21.77
2023-02-24T23:38:31.145Z,21.33
2023-02-24T23:41:02.009Z,22.00
2023-02-24T23:43:31.245Z,20.77
2023-02-24T23:45:59.769Z,20.83
2023-02-24T23:48:28.461Z,21.13
2023-02-24T23:50:57.524Z,23.37
2023-02-24T23:53:25.387Z,22.73
2023-02-24T23:55:53.472Z,20.60
2023-02-24T23:58:21.622Z,21.53
